You are listening to:
EPWA Tower #1 - Warsaw, Poland

EPWA 082000Z 03005KT CAVOK 27/15 Q1020 NOSIG

If stream doesn't start automatically press the play button
If stream stops then reload player then press play